Aeroporto :
LOGIN :

Iscrizione | Disclaimer

   EN    FR    IT 

 










Sommario :    VFR   VFR Marginale   IFR   IFR Intensivo   IFR Molto Intensivo
Visibilità : 
Base nubi : 
>= 8 km
>= 3000ft
5 / 8 km
1000 / 3000 ft
1500m / 5 km
500 / 1000 ft
800 / 1500m
200 / 500 ft
< 800m
< 200 ft
Simboli :   Temporali  Nebbia  Neve Forte  Precipitazioni Forti  Vento > 20 kt
SIGMETs :   Varie  Temporali  Ghiacco  Turbolenza  Onda orograficha  Ceneri Vulcaniche







- Altitudine del aeroporto : 396 ft
- Carte del aeroporto


LFOZ - Orléans St Denis

ULTIMO METAR :
  • 211300Z AUTO 04008KT 350V110 CAVOK 24/09 Q1025

METARs OBSOLETI :
  • 211230Z AUTO 06008KT 010V110 CAVOK 23/09 Q1026
  • 211200Z AUTO 06006KT 360V110 CAVOK 23/09 Q1026
  • 211130Z AUTO 06008KT 020V090 CAVOK 23/09 Q1026
  • 211100Z AUTO VRB03KT CAVOK 23/09 Q1027
  • 211030Z AUTO 04006KT 350V090 CAVOK 22/10 Q1027

TAF N/A
Nessun NOTAM noto per questo aeroporto.



MetMap, La meteo Aeronautica in un colpo d'occhio ! - Copyright ORBIFLY Dicembre 2007 - Disclaimer

ORBIFLY MET'MAP TEAM :

Programmazione e sviluppo : Alexandra Zaïnal
Concezione e sviluppo : Baudouin d'Aumeries
Co-Programmazione e sviluppo : Marc-Olivier Méhu
Supporto tecnico e logistico : Manuel Goepfert
Aiuto per la traduzione : Arnaldo La Scala

Contatto : metmap@orbifly.com




FONTI E CREDITI :

   NOAA